sensor_id;sensor_type;location;lat;lon;timestamp;temperature;humidity
2056;DHT22;1033;52.560;13.374;2022-09-09T00:00:39;14.70;99.90
2056;DHT22;1033;52.560;13.374;2022-09-09T00:03:17;14.70;99.90
2056;DHT22;1033;52.560;13.374;2022-09-09T00:05:56;14.80;99.90
2056;DHT22;1033;52.560;13.374;2022-09-09T00:08:45;14.70;99.90
2056;DHT22;1033;52.560;13.374;2022-09-09T00:11:29;14.70;99.90
2056;DHT22;1033;52.560;13.374;2022-09-09T00:14:11;14.70;99.90
2056;DHT22;1033;52.560;13.374;2022-09-09T00:16:50;14.60;99.90
2056;DHT22;1033;52.560;13.374;2022-09-09T00:19:26;14.50;99.90
2056;DHT22;1033;52.560;13.374;2022-09-09T00:22:08;14.50;99.90
2056;DHT22;1033;52.560;13.374;2022-09-09T00:24:46;14.50;99.90
2056;DHT22;1033;52.560;13.374;2022-09-09T00:27:26;14.50;99.90
2056;DHT22;1033;52.560;13.374;2022-09-09T00:30:12;14.50;99.90
2056;DHT22;1033;52.560;13.374;2022-09-09T00:32:43;14.60;99.90
2056;DHT22;1033;52.560;13.374;2022-09-09T00:35:17;14.60;99.90
2056;DHT22;1033;52.560;13.374;2022-09-09T00:37:53;14.60;99.90
2056;DHT22;1033;52.560;13.374;2022-09-09T00:40:32;14.60;99.90
2056;DHT22;1033;52.560;13.374;2022-09-09T00:43:26;14.60;99.90
2056;DHT22;1033;52.560;13.374;2022-09-09T00:46:21;14.40;99.90
2056;DHT22;1033;52.560;13.374;2022-09-09T00:49:25;14.40;99.90
2056;DHT22;1033;52.560;13.374;2022-09-09T00:52:14;14.50;99.90
2056;DHT22;1033;52.560;13.374;2022-09-09T00:54:57;14.50;99.90
2056;DHT22;1033;52.560;13.374;2022-09-09T00:57:35;14.40;99.90
2056;DHT22;1033;52.560;13.374;2022-09-09T01:00:23;14.40;99.90
2056;DHT22;1033;52.560;13.374;2022-09-09T01:03:04;14.40;99.90
2056;DHT22;1033;52.560;13.374;2022-09-09T01:05:59;14.40;99.90
2056;DHT22;1033;52.560;13.374;2022-09-09T01:08:48;14.30;99.90
2056;DHT22;1033;52.560;13.374;2022-09-09T01:11:37;14.20;99.90
2056;DHT22;1033;52.560;13.374;2022-09-09T01:14:29;14.30;99.90
2056;DHT22;1033;52.560;13.374;2022-09-09T01:17:12;14.20;99.90
2056;DHT22;1033;52.560;13.374;2022-09-09T01:20:04;14.20;99.90
2056;DHT22;1033;52.560;13.374;2022-09-09T01:23:19;14.30;99.90
2056;DHT22;1033;52.560;13.374;2022-09-09T01:26:22;14.30;99.90
2056;DHT22;1033;52.560;13.374;2022-09-09T01:28:58;14.30;99.90
2056;DHT22;1033;52.560;13.374;2022-09-09T01:31:36;14.30;99.90
2056;DHT22;1033;52.560;13.374;2022-09-09T01:34:10;14.30;99.90
2056;DHT22;1033;52.560;13.374;2022-09-09T01:36:44;14.30;99.90
2056;DHT22;1033;52.560;13.374;2022-09-09T01:39:18;14.30;99.90
2056;DHT22;1033;52.560;13.374;2022-09-09T01:41:58;14.30;99.90
2056;DHT22;1033;52.560;13.374;2022-09-09T01:44:28;14.30;99.90
2056;DHT22;1033;52.560;13.374;2022-09-09T01:47:00;14.30;99.90
2056;DHT22;1033;52.560;13.374;2022-09-09T01:49:32;14.20;99.90
2056;DHT22;1033;52.560;13.374;2022-09-09T01:52:11;14.10;99.90
2056;DHT22;1033;52.560;13.374;2022-09-09T01:54:40;14.10;99.90
2056;DHT22;1033;52.560;13.374;2022-09-09T01:57:20;14.10;99.90
2056;DHT22;1033;52.560;13.374;2022-09-09T02:00:01;14.10;99.90
2056;DHT22;1033;52.560;13.374;2022-09-09T02:02:47;14.00;99.90
2056;DHT22;1033;52.560;13.374;2022-09-09T02:05:36;14.10;99.90
2056;DHT22;1033;52.560;13.374;2022-09-09T02:08:20;14.10;99.90
2056;DHT22;1033;52.560;13.374;2022-09-09T02:11:01;14.10;99.90
2056;DHT22;1033;52.560;13.374;2022-09-09T02:13:52;14.00;99.90
2056;DHT22;1033;52.560;13.374;2022-09-09T02:16:29;13.90;99.90
2056;DHT22;1033;52.560;13.374;2022-09-09T02:19:08;13.90;99.90
2056;DHT22;1033;52.560;13.374;2022-09-09T02:21:57;13.90;99.90
2056;DHT22;1033;52.560;13.374;2022-09-09T02:24:30;13.90;99.90
2056;DHT22;1033;52.560;13.374;2022-09-09T02:27:22;13.90;99.90
2056;DHT22;1033;52.560;13.374;2022-09-09T02:29:54;14.00;99.90
2056;DHT22;1033;52.560;13.374;2022-09-09T02:32:40;13.90;99.90
2056;DHT22;1033;52.560;13.374;2022-09-09T02:35:16;13.90;99.90
2056;DHT22;1033;52.560;13.374;2022-09-09T02:37:51;13.80;99.90
2056;DHT22;1033;52.560;13.374;2022-09-09T02:40:23;13.90;99.90
2056;DHT22;1033;52.560;13.374;2022-09-09T02:42:58;13.90;99.90
2056;DHT22;1033;52.560;13.374;2022-09-09T02:45:36;13.80;99.90
2056;DHT22;1033;52.560;13.374;2022-09-09T02:48:17;13.80;99.90
2056;DHT22;1033;52.560;13.374;2022-09-09T02:50:57;13.80;99.90
2056;DHT22;1033;52.560;13.374;2022-09-09T02:53:39;13.80;99.90
2056;DHT22;1033;52.560;13.374;2022-09-09T02:56:15;13.70;99.90
2056;DHT22;1033;52.560;13.374;2022-09-09T02:58:49;13.70;99.90
2056;DHT22;1033;52.560;13.374;2022-09-09T03:01:21;13.70;99.90
2056;DHT22;1033;52.560;13.374;2022-09-09T03:03:50;13.70;99.90
2056;DHT22;1033;52.560;13.374;2022-09-09T03:06:18;13.70;99.90
2056;DHT22;1033;52.560;13.374;2022-09-09T03:08:54;13.70;99.90
2056;DHT22;1033;52.560;13.374;2022-09-09T03:11:27;13.70;99.90
2056;DHT22;1033;52.560;13.374;2022-09-09T03:13:57;13.60;99.90
2056;DHT22;1033;52.560;13.374;2022-09-09T03:16:29;13.60;99.90
2056;DHT22;1033;52.560;13.374;2022-09-09T03:19:00;13.70;99.90
2056;DHT22;1033;52.560;13.374;2022-09-09T03:21:30;13.60;99.90
2056;DHT22;1033;52.560;13.374;2022-09-09T03:23:59;13.50;99.90
2056;DHT22;1033;52.560;13.374;2022-09-09T03:26:30;13.50;99.90
2056;DHT22;1033;52.560;13.374;2022-09-09T03:29:00;13.50;99.90
2056;DHT22;1033;52.560;13.374;2022-09-09T03:31:31;13.40;99.90
2056;DHT22;1033;52.560;13.374;2022-09-09T03:34:00;13.40;99.90
2056;DHT22;1033;52.560;13.374;2022-09-09T03:36:32;13.50;99.90
2056;DHT22;1033;52.560;13.374;2022-09-09T03:39:01;13.60;99.90
2056;DHT22;1033;52.560;13.374;2022-09-09T03:41:31;13.60;99.90
2056;DHT22;1033;52.560;13.374;2022-09-09T03:44:02;13.60;99.90
2056;DHT22;1033;52.560;13.374;2022-09-09T03:46:38;13.50;99.90
2056;DHT22;1033;52.560;13.374;2022-09-09T03:49:07;13.40;99.90
2056;DHT22;1033;52.560;13.374;2022-09-09T03:51:37;13.40;99.90
2056;DHT22;1033;52.560;13.374;2022-09-09T03:54:06;13.40;99.90
2056;DHT22;1033;52.560;13.374;2022-09-09T03:56:38;13.40;99.90
2056;DHT22;1033;52.560;13.374;2022-09-09T03:59:11;13.50;99.90
2056;DHT22;1033;52.560;13.374;2022-09-09T04:01:44;13.50;99.90
2056;DHT22;1033;52.560;13.374;2022-09-09T04:04:14;13.50;99.90
2056;DHT22;1033;52.560;13.374;2022-09-09T04:06:42;13.50;99.90
2056;DHT22;1033;52.560;13.374;2022-09-09T04:09:11;13.40;99.90
2056;DHT22;1033;52.560;13.374;2022-09-09T04:11:41;13.40;99.90
2056;DHT22;1033;52.560;13.374;2022-09-09T04:14:10;13.40;99.90
2056;DHT22;1033;52.560;13.374;2022-09-09T04:16:39;13.30;99.90
2056;DHT22;1033;52.560;13.374;2022-09-09T04:19:13;13.30;99.90
2056;DHT22;1033;52.560;13.374;2022-09-09T04:21:43;13.30;99.90
2056;DHT22;1033;52.560;13.374;2022-09-09T04:24:12;13.30;99.90
2056;DHT22;1033;52.560;13.374;2022-09-09T04:26:43;13.30;99.90
2056;DHT22;1033;52.560;13.374;2022-09-09T04:29:12;13.40;99.90
2056;DHT22;1033;52.560;13.374;2022-09-09T04:31:41;13.40;99.90
2056;DHT22;1033;52.560;13.374;2022-09-09T04:34:10;13.40;99.90
2056;DHT22;1033;52.560;13.374;2022-09-09T04:36:40;13.30;99.90
2056;DHT22;1033;52.560;13.374;2022-09-09T04:39:09;13.40;99.90
2056;DHT22;1033;52.560;13.374;2022-09-09T04:41:38;13.40;99.90
2056;DHT22;1033;52.560;13.374;2022-09-09T04:44:09;13.40;99.90
2056;DHT22;1033;52.560;13.374;2022-09-09T04:46:38;13.50;99.90
2056;DHT22;1033;52.560;13.374;2022-09-09T04:49:09;13.50;99.90
2056;DHT22;1033;52.560;13.374;2022-09-09T04:51:43;13.50;99.90
2056;DHT22;1033;52.560;13.374;2022-09-09T04:54:13;13.60;99.90
2056;DHT22;1033;52.560;13.374;2022-09-09T04:56:43;13.60;99.90
2056;DHT22;1033;52.560;13.374;2022-09-09T04:59:13;13.60;99.90
2056;DHT22;1033;52.560;13.374;2022-09-09T05:01:45;13.60;99.90
2056;DHT22;1033;52.560;13.374;2022-09-09T05:04:14;13.80;99.90
2056;DHT22;1033;52.560;13.374;2022-09-09T05:06:44;14.10;99.90
2056;DHT22;1033;52.560;13.374;2022-09-09T05:09:13;14.30;99.90
2056;DHT22;1033;52.560;13.374;2022-09-09T05:11:44;14.60;99.90
2056;DHT22;1033;52.560;13.374;2022-09-09T05:14:20;14.60;99.90
2056;DHT22;1033;52.560;13.374;2022-09-09T05:16:49;14.50;99.90
2056;DHT22;1033;52.560;13.374;2022-09-09T05:19:18;14.50;99.90
2056;DHT22;1033;52.560;13.374;2022-09-09T05:21:50;14.60;99.90
2056;DHT22;1033;52.560;13.374;2022-09-09T05:24:23;14.60;99.90
2056;DHT22;1033;52.560;13.374;2022-09-09T05:26:55;14.60;99.90
2056;DHT22;1033;52.560;13.374;2022-09-09T05:29:25;14.60;99.90
2056;DHT22;1033;52.560;13.374;2022-09-09T05:31:55;14.70;99.90
2056;DHT22;1033;52.560;13.374;2022-09-09T05:34:24;14.70;99.90
2056;DHT22;1033;52.560;13.374;2022-09-09T05:36:55;14.80;99.90
2056;DHT22;1033;52.560;13.374;2022-09-09T05:39:25;14.90;99.90
2056;DHT22;1033;52.560;13.374;2022-09-09T05:41:54;15.00;99.90
2056;DHT22;1033;52.560;13.374;2022-09-09T05:44:24;15.10;99.90
2056;DHT22;1033;52.560;13.374;2022-09-09T05:46:55;15.10;99.90
2056;DHT22;1033;52.560;13.374;2022-09-09T05:49:25;15.20;99.90
2056;DHT22;1033;52.560;13.374;2022-09-09T05:51:55;15.20;99.90
2056;DHT22;1033;52.560;13.374;2022-09-09T05:54:24;15.30;99.90
2056;DHT22;1033;52.560;13.374;2022-09-09T05:56:54;15.40;99.90
2056;DHT22;1033;52.560;13.374;2022-09-09T05:59:23;15.50;99.90
2056;DHT22;1033;52.560;13.374;2022-09-09T06:01:54;15.50;99.90
2056;DHT22;1033;52.560;13.374;2022-09-09T06:04:29;15.70;99.90
2056;DHT22;1033;52.560;13.374;2022-09-09T06:07:01;15.70;99.90
2056;DHT22;1033;52.560;13.374;2022-09-09T06:09:30;15.80;99.90
2056;DHT22;1033;52.560;13.374;2022-09-09T06:13:12;15.90;99.90
2056;DHT22;1033;52.560;13.374;2022-09-09T06:15:49;16.00;99.90
2056;DHT22;1033;52.560;13.374;2022-09-09T06:18:19;16.10;99.90
2056;DHT22;1033;52.560;13.374;2022-09-09T06:20:54;16.10;99.90
2056;DHT22;1033;52.560;13.374;2022-09-09T06:23:26;16.20;99.90
2056;DHT22;1033;52.560;13.374;2022-09-09T06:26:04;16.40;99.90
2056;DHT22;1033;52.560;13.374;2022-09-09T06:28:35;16.40;99.90
2056;DHT22;1033;52.560;13.374;2022-09-09T06:31:07;16.50;99.90
2056;DHT22;1033;52.560;13.374;2022-09-09T06:33:38;16.60;99.90
2056;DHT22;1033;52.560;13.374;2022-09-09T06:36:12;16.80;99.90
2056;DHT22;1033;52.560;13.374;2022-09-09T06:38:44;17.00;99.90
2056;DHT22;1033;52.560;13.374;2022-09-09T06:41:15;17.00;99.90
2056;DHT22;1033;52.560;13.374;2022-09-09T06:43:45;17.10;99.90
2056;DHT22;1033;52.560;13.374;2022-09-09T06:46:17;17.20;99.90
2056;DHT22;1033;52.560;13.374;2022-09-09T06:48:49;17.10;99.90
2056;DHT22;1033;52.560;13.374;2022-09-09T06:51:20;17.00;1.00
2056;DHT22;1033;52.560;13.374;2022-09-09T06:53:52;16.90;1.00
2056;DHT22;1033;52.560;13.374;2022-09-09T06:56:25;16.70;54.70
2056;DHT22;1033;52.560;13.374;2022-09-09T06:58:57;16.70;99.90
2056;DHT22;1033;52.560;13.374;2022-09-09T07:01:31;16.60;90.30
2056;DHT22;1033;52.560;13.374;2022-09-09T07:04:05;16.70;1.00
2056;DHT22;1033;52.560;13.374;2022-09-09T07:06:37;17.00;99.90
2056;DHT22;1033;52.560;13.374;2022-09-09T07:09:12;17.20;1.00
2056;DHT22;1033;52.560;13.374;2022-09-09T07:11:46;17.40;99.90
2056;DHT22;1033;52.560;13.374;2022-09-09T07:14:19;17.80;67.50
2056;DHT22;1033;52.560;13.374;2022-09-09T07:16:55;18.20;1.00
2056;DHT22;1033;52.560;13.374;2022-09-09T07:19:28;18.30;99.90
2056;DHT22;1033;52.560;13.374;2022-09-09T07:21:57;18.40;99.90
2056;DHT22;1033;52.560;13.374;2022-09-09T07:24:27;18.40;99.90
2056;DHT22;1033;52.560;13.374;2022-09-09T07:26:58;18.30;99.90
2056;DHT22;1033;52.560;13.374;2022-09-09T07:29:26;18.50;99.90
2056;DHT22;1033;52.560;13.374;2022-09-09T07:31:56;18.70;99.90
2056;DHT22;1033;52.560;13.374;2022-09-09T07:34:31;18.90;99.90
2056;DHT22;1033;52.560;13.374;2022-09-09T07:37:01;19.00;99.90
2056;DHT22;1033;52.560;13.374;2022-09-09T07:39:33;19.20;99.90
2056;DHT22;1033;52.560;13.374;2022-09-09T07:42:02;19.40;99.90
2056;DHT22;1033;52.560;13.374;2022-09-09T07:44:32;19.50;99.90
2056;DHT22;1033;52.560;13.374;2022-09-09T07:47:11;19.70;99.90
2056;DHT22;1033;52.560;13.374;2022-09-09T07:49:45;19.90;99.90
2056;DHT22;1033;52.560;13.374;2022-09-09T07:52:21;20.10;99.90
2056;DHT22;1033;52.560;13.374;2022-09-09T07:54:56;20.50;99.90
2056;DHT22;1033;52.560;13.374;2022-09-09T07:57:28;20.80;99.90
2056;DHT22;1033;52.560;13.374;2022-09-09T07:59:57;20.90;99.90
2056;DHT22;1033;52.560;13.374;2022-09-09T08:02:27;20.90;80.70
2056;DHT22;1033;52.560;13.374;2022-09-09T08:04:56;20.90;69.60
2056;DHT22;1033;52.560;13.374;2022-09-09T08:07:25;20.80;69.20
2056;DHT22;1033;52.560;13.374;2022-09-09T08:09:56;20.80;74.20
2056;DHT22;1033;52.560;13.374;2022-09-09T08:12:28;20.90;78.20
2056;DHT22;1033;52.560;13.374;2022-09-09T08:14:57;21.20;62.50
2056;DHT22;1033;52.560;13.374;2022-09-09T08:17:30;21.10;53.40
2056;DHT22;1033;52.560;13.374;2022-09-09T08:20:03;21.20;45.50
2056;DHT22;1033;52.560;13.374;2022-09-09T08:22:34;21.20;49.70
2056;DHT22;1033;52.560;13.374;2022-09-09T08:25:06;21.10;43.50
2056;DHT22;1033;52.560;13.374;2022-09-09T08:27:38;21.10;50.10
2056;DHT22;1033;52.560;13.374;2022-09-09T08:30:08;21.20;45.20
2056;DHT22;1033;52.560;13.374;2022-09-09T08:32:40;21.40;40.20
2056;DHT22;1033;52.560;13.374;2022-09-09T08:35:13;21.30;35.10
2056;DHT22;1033;52.560;13.374;2022-09-09T08:37:42;21.00;36.60
2056;DHT22;1033;52.560;13.374;2022-09-09T08:40:26;20.80;43.00
2056;DHT22;1033;52.560;13.374;2022-09-09T08:42:59;20.70;44.50
2056;DHT22;1033;52.560;13.374;2022-09-09T08:45:35;20.70;53.70
2056;DHT22;1033;52.560;13.374;2022-09-09T08:48:21;20.70;40.10
2056;DHT22;1033;52.560;13.374;2022-09-09T08:51:09;20.70;37.00
2056;DHT22;1033;52.560;13.374;2022-09-09T08:53:42;20.80;38.20
2056;DHT22;1033;52.560;13.374;2022-09-09T08:56:18;20.80;42.20
2056;DHT22;1033;52.560;13.374;2022-09-09T08:58:56;20.90;42.30
2056;DHT22;1033;52.560;13.374;2022-09-09T09:01:50;20.80;56.20
2056;DHT22;1033;52.560;13.374;2022-09-09T09:04:58;20.70;45.50
2056;DHT22;1033;52.560;13.374;2022-09-09T09:07:53;20.60;41.50
2056;DHT22;1033;52.560;13.374;2022-09-09T09:10:43;20.60;36.90
2056;DHT22;1033;52.560;13.374;2022-09-09T09:13:25;20.70;35.90
2056;DHT22;1033;52.560;13.374;2022-09-09T09:16:10;20.60;36.80
2056;DHT22;1033;52.560;13.374;2022-09-09T09:18:46;20.80;40.40
2056;DHT22;1033;52.560;13.374;2022-09-09T09:21:19;20.90;37.70
2056;DHT22;1033;52.560;13.374;2022-09-09T09:23:56;21.30;32.80
2056;DHT22;1033;52.560;13.374;2022-09-09T09:26:33;21.60;29.70
2056;DHT22;1033;52.560;13.374;2022-09-09T09:29:11;21.70;24.80
2056;DHT22;1033;52.560;13.374;2022-09-09T09:31:44;22.00;19.70
2056;DHT22;1033;52.560;13.374;2022-09-09T09:34:16;22.20;15.30
2056;DHT22;1033;52.560;13.374;2022-09-09T09:36:53;22.30;15.20
2056;DHT22;1033;52.560;13.374;2022-09-09T09:39:29;22.70;13.40
2056;DHT22;1033;52.560;13.374;2022-09-09T09:42:24;23.10;7.30
2056;DHT22;1033;52.560;13.374;2022-09-09T09:45:35;23.30;6.80
2056;DHT22;1033;52.560;13.374;2022-09-09T09:48:32;23.50;2.30
2056;DHT22;1033;52.560;13.374;2022-09-09T09:51:07;23.50;1.00
2056;DHT22;1033;52.560;13.374;2022-09-09T09:53:40;23.10;1.00
2056;DHT22;1033;52.560;13.374;2022-09-09T09:56:12;23.20;1.00
2056;DHT22;1033;52.560;13.374;2022-09-09T09:58:50;23.10;1.00
2056;DHT22;1033;52.560;13.374;2022-09-09T10:01:29;23.10;1.00
2056;DHT22;1033;52.560;13.374;2022-09-09T10:04:15;23.10;1.00
2056;DHT22;1033;52.560;13.374;2022-09-09T10:06:50;23.00;1.00
2056;DHT22;1033;52.560;13.374;2022-09-09T10:09:23;22.70;1.00
2056;DHT22;1033;52.560;13.374;2022-09-09T10:12:00;23.00;1.00
2056;DHT22;1033;52.560;13.374;2022-09-09T10:14:39;23.10;1.00
2056;DHT22;1033;52.560;13.374;2022-09-09T10:17:27;23.00;1.00
2056;DHT22;1033;52.560;13.374;2022-09-09T10:20:22;23.00;1.00
2056;DHT22;1033;52.560;13.374;2022-09-09T10:23:10;22.80;1.00
2056;DHT22;1033;52.560;13.374;2022-09-09T10:26:03;22.70;1.00
2056;DHT22;1033;52.560;13.374;2022-09-09T10:32:10;23.20;1.00
2056;DHT22;1033;52.560;13.374;2022-09-09T10:35:04;23.60;1.00
2056;DHT22;1033;52.560;13.374;2022-09-09T10:38:04;23.90;1.00
2056;DHT22;1033;52.560;13.374;2022-09-09T10:41:00;23.80;1.00
2056;DHT22;1033;52.560;13.374;2022-09-09T10:44:04;23.60;1.00
2056;DHT22;1033;52.560;13.374;2022-09-09T10:46:53;23.60;1.00
2056;DHT22;1033;52.560;13.374;2022-09-09T10:49:52;23.60;1.00
2056;DHT22;1033;52.560;13.374;2022-09-09T10:52:41;23.60;1.00
2056;DHT22;1033;52.560;13.374;2022-09-09T10:55:20;23.80;1.00
2056;DHT22;1033;52.560;13.374;2022-09-09T10:57:58;23.80;1.00
2056;DHT22;1033;52.560;13.374;2022-09-09T11:00:37;23.50;1.00
2056;DHT22;1033;52.560;13.374;2022-09-09T11:03:16;23.40;1.00
2056;DHT22;1033;52.560;13.374;2022-09-09T11:05:53;23.40;1.00
2056;DHT22;1033;52.560;13.374;2022-09-09T11:08:28;23.50;1.00
2056;DHT22;1033;52.560;13.374;2022-09-09T11:11:02;23.80;1.00
2056;DHT22;1033;52.560;13.374;2022-09-09T11:13:42;23.90;1.00
2056;DHT22;1033;52.560;13.374;2022-09-09T11:16:24;23.90;1.00
2056;DHT22;1033;52.560;13.374;2022-09-09T11:19:02;23.80;1.00
2056;DHT22;1033;52.560;13.374;2022-09-09T11:21:44;23.70;1.00
2056;DHT22;1033;52.560;13.374;2022-09-09T11:24:20;23.70;1.00
2056;DHT22;1033;52.560;13.374;2022-09-09T11:26:55;23.70;1.00
2056;DHT22;1033;52.560;13.374;2022-09-09T11:29:56;23.80;1.00
2056;DHT22;1033;52.560;13.374;2022-09-09T11:36:34;23.60;1.00
2056;DHT22;1033;52.560;13.374;2022-09-09T11:39:35;23.70;1.00
2056;DHT22;1033;52.560;13.374;2022-09-09T11:42:16;23.80;1.00
2056;DHT22;1033;52.560;13.374;2022-09-09T11:44:46;23.80;1.00
2056;DHT22;1033;52.560;13.374;2022-09-09T11:47:20;24.00;1.00
2056;DHT22;1033;52.560;13.374;2022-09-09T11:50:08;24.40;1.00
2056;DHT22;1033;52.560;13.374;2022-09-09T11:52:43;24.30;1.00
2056;DHT22;1033;52.560;13.374;2022-09-09T11:55:26;24.50;1.00
2056;DHT22;1033;52.560;13.374;2022-09-09T11:57:58;24.80;1.00
2056;DHT22;1033;52.560;13.374;2022-09-09T12:00:34;24.80;1.00
2056;DHT22;1033;52.560;13.374;2022-09-09T12:03:06;25.00;1.00
2056;DHT22;1033;52.560;13.374;2022-09-09T12:05:57;25.00;1.00
2056;DHT22;1033;52.560;13.374;2022-09-09T12:08:30;24.90;1.00
2056;DHT22;1033;52.560;13.374;2022-09-09T12:10:59;24.90;1.00
2056;DHT22;1033;52.560;13.374;2022-09-09T12:13:30;25.00;1.00
2056;DHT22;1033;52.560;13.374;2022-09-09T12:16:00;24.80;1.00
2056;DHT22;1033;52.560;13.374;2022-09-09T12:18:34;24.60;1.00
2056;DHT22;1033;52.560;13.374;2022-09-09T12:21:11;24.50;1.00
2056;DHT22;1033;52.560;13.374;2022-09-09T12:23:52;24.30;1.00
2056;DHT22;1033;52.560;13.374;2022-09-09T12:26:31;24.20;1.00
2056;DHT22;1033;52.560;13.374;2022-09-09T12:29:21;24.30;1.00
2056;DHT22;1033;52.560;13.374;2022-09-09T12:32:00;24.50;1.00
2056;DHT22;1033;52.560;13.374;2022-09-09T12:34:39;24.30;1.00
2056;DHT22;1033;52.560;13.374;2022-09-09T12:37:16;24.20;1.00
2056;DHT22;1033;52.560;13.374;2022-09-09T12:39:55;24.10;1.00
2056;DHT22;1033;52.560;13.374;2022-09-09T12:42:26;24.20;1.00
2056;DHT22;1033;52.560;13.374;2022-09-09T12:44:58;24.30;1.00
2056;DHT22;1033;52.560;13.374;2022-09-09T12:47:36;24.20;1.00
2056;DHT22;1033;52.560;13.374;2022-09-09T12:50:21;24.10;1.00
2056;DHT22;1033;52.560;13.374;2022-09-09T12:52:54;24.00;1.00
2056;DHT22;1033;52.560;13.374;2022-09-09T12:55:31;24.00;1.00
2056;DHT22;1033;52.560;13.374;2022-09-09T12:58:04;24.10;1.00
2056;DHT22;1033;52.560;13.374;2022-09-09T13:00:34;24.00;1.00
2056;DHT22;1033;52.560;13.374;2022-09-09T13:03:17;23.90;1.00
2056;DHT22;1033;52.560;13.374;2022-09-09T13:05:48;24.10;1.00
2056;DHT22;1033;52.560;13.374;2022-09-09T13:08:20;24.00;1.00
2056;DHT22;1033;52.560;13.374;2022-09-09T13:10:53;23.80;1.00
2056;DHT22;1033;52.560;13.374;2022-09-09T13:13:34;23.80;1.00
2056;DHT22;1033;52.560;13.374;2022-09-09T13:16:05;23.80;1.00
2056;DHT22;1033;52.560;13.374;2022-09-09T13:18:46;23.80;1.00
2056;DHT22;1033;52.560;13.374;2022-09-09T13:21:16;24.00;1.00
2056;DHT22;1033;52.560;13.374;2022-09-09T13:23:49;23.90;1.00
2056;DHT22;1033;52.560;13.374;2022-09-09T13:26:24;23.80;1.00
2056;DHT22;1033;52.560;13.374;2022-09-09T13:28:54;23.60;1.00
2056;DHT22;1033;52.560;13.374;2022-09-09T13:31:37;23.70;1.00
2056;DHT22;1033;52.560;13.374;2022-09-09T13:34:11;23.80;1.00
2056;DHT22;1033;52.560;13.374;2022-09-09T13:36:41;23.80;1.00
2056;DHT22;1033;52.560;13.374;2022-09-09T13:39:17;23.70;1.00
2056;DHT22;1033;52.560;13.374;2022-09-09T13:41:48;23.70;1.00
2056;DHT22;1033;52.560;13.374;2022-09-09T13:44:20;23.60;1.00
2056;DHT22;1033;52.560;13.374;2022-09-09T13:47:03;23.60;1.00
2056;DHT22;1033;52.560;13.374;2022-09-09T13:49:36;23.70;1.00
2056;DHT22;1033;52.560;13.374;2022-09-09T13:52:10;23.70;1.00
2056;DHT22;1033;52.560;13.374;2022-09-09T13:54:40;23.80;1.00
2056;DHT22;1033;52.560;13.374;2022-09-09T13:57:24;24.10;1.00
2056;DHT22;1033;52.560;13.374;2022-09-09T13:59:54;24.60;1.00
2056;DHT22;1033;52.560;13.374;2022-09-09T14:02:32;25.00;1.00
2056;DHT22;1033;52.560;13.374;2022-09-09T14:05:02;25.10;1.00
2056;DHT22;1033;52.560;13.374;2022-09-09T14:07:32;25.20;1.00
2056;DHT22;1033;52.560;13.374;2022-09-09T14:10:00;25.30;1.00
2056;DHT22;1033;52.560;13.374;2022-09-09T14:12:31;25.20;1.00
2056;DHT22;1033;52.560;13.374;2022-09-09T14:15:00;25.30;1.00
2056;DHT22;1033;52.560;13.374;2022-09-09T14:17:29;25.40;1.00
2056;DHT22;1033;52.560;13.374;2022-09-09T14:19:58;25.20;1.00
2056;DHT22;1033;52.560;13.374;2022-09-09T14:22:27;25.30;1.00
2056;DHT22;1033;52.560;13.374;2022-09-09T14:24:57;25.00;1.00
2056;DHT22;1033;52.560;13.374;2022-09-09T14:27:27;24.80;1.00
2056;DHT22;1033;52.560;13.374;2022-09-09T14:29:58;24.90;1.00
2056;DHT22;1033;52.560;13.374;2022-09-09T14:32:28;24.80;1.00
2056;DHT22;1033;52.560;13.374;2022-09-09T14:34:57;24.80;1.00
2056;DHT22;1033;52.560;13.374;2022-09-09T14:37:27;24.60;1.00
2056;DHT22;1033;52.560;13.374;2022-09-09T14:39:58;24.50;1.00
2056;DHT22;1033;52.560;13.374;2022-09-09T14:42:27;24.50;1.00
2056;DHT22;1033;52.560;13.374;2022-09-09T14:44:58;24.40;1.00
2056;DHT22;1033;52.560;13.374;2022-09-09T14:47:27;24.20;1.00
2056;DHT22;1033;52.560;13.374;2022-09-09T14:49:57;24.30;1.00
2056;DHT22;1033;52.560;13.374;2022-09-09T14:52:28;24.40;1.00
2056;DHT22;1033;52.560;13.374;2022-09-09T14:54:58;24.40;1.00
2056;DHT22;1033;52.560;13.374;2022-09-09T14:57:27;24.50;1.00
2056;DHT22;1033;52.560;13.374;2022-09-09T14:59:57;24.40;1.00
2056;DHT22;1033;52.560;13.374;2022-09-09T15:02:26;24.20;1.00
2056;DHT22;1033;52.560;13.374;2022-09-09T15:04:57;24.10;1.00
2056;DHT22;1033;52.560;13.374;2022-09-09T15:07:26;24.10;1.00
2056;DHT22;1033;52.560;13.374;2022-09-09T15:09:55;23.90;1.00
2056;DHT22;1033;52.560;13.374;2022-09-09T15:12:24;23.80;1.00
2056;DHT22;1033;52.560;13.374;2022-09-09T15:14:55;23.70;1.00
2056;DHT22;1033;52.560;13.374;2022-09-09T15:17:26;23.80;1.00
2056;DHT22;1033;52.560;13.374;2022-09-09T15:19:55;23.90;1.00
2056;DHT22;1033;52.560;13.374;2022-09-09T15:22:24;23.80;1.00
2056;DHT22;1033;52.560;13.374;2022-09-09T15:24:53;23.70;1.00
2056;DHT22;1033;52.560;13.374;2022-09-09T15:27:22;24.10;1.00
2056;DHT22;1033;52.560;13.374;2022-09-09T15:29:51;24.20;1.00
2056;DHT22;1033;52.560;13.374;2022-09-09T15:32:20;24.30;1.00
2056;DHT22;1033;52.560;13.374;2022-09-09T15:34:50;24.20;1.00
2056;DHT22;1033;52.560;13.374;2022-09-09T15:37:20;24.00;1.00
2056;DHT22;1033;52.560;13.374;2022-09-09T15:39:49;23.90;1.00
2056;DHT22;1033;52.560;13.374;2022-09-09T15:42:18;23.80;1.00
2056;DHT22;1033;52.560;13.374;2022-09-09T15:44:47;23.60;1.00
2056;DHT22;1033;52.560;13.374;2022-09-09T15:47:16;23.40;1.00
2056;DHT22;1033;52.560;13.374;2022-09-09T15:49:45;23.30;1.00
2056;DHT22;1033;52.560;13.374;2022-09-09T15:52:16;23.20;1.00
2056;DHT22;1033;52.560;13.374;2022-09-09T15:54:45;23.10;1.00
2056;DHT22;1033;52.560;13.374;2022-09-09T15:57:14;23.00;1.00
2056;DHT22;1033;52.560;13.374;2022-09-09T15:59:43;22.80;1.00
2056;DHT22;1033;52.560;13.374;2022-09-09T16:02:13;22.50;1.00
2056;DHT22;1033;52.560;13.374;2022-09-09T16:04:42;22.30;1.00
2056;DHT22;1033;52.560;13.374;2022-09-09T16:07:11;22.10;1.00
2056;DHT22;1033;52.560;13.374;2022-09-09T16:09:42;21.90;1.00
2056;DHT22;1033;52.560;13.374;2022-09-09T16:12:11;21.80;1.00
2056;DHT22;1033;52.560;13.374;2022-09-09T16:14:44;21.80;1.00
2056;DHT22;1033;52.560;13.374;2022-09-09T16:17:13;21.70;1.00
2056;DHT22;1033;52.560;13.374;2022-09-09T16:19:42;21.60;1.00
2056;DHT22;1033;52.560;13.374;2022-09-09T16:22:12;21.50;1.00
2056;DHT22;1033;52.560;13.374;2022-09-09T16:24:43;21.50;1.00
2056;DHT22;1033;52.560;13.374;2022-09-09T16:27:12;21.40;1.00
2056;DHT22;1033;52.560;13.374;2022-09-09T16:29:42;21.40;1.00
2056;DHT22;1033;52.560;13.374;2022-09-09T16:32:11;21.40;1.00
2056;DHT22;1033;52.560;13.374;2022-09-09T16:34:40;21.40;1.00
2056;DHT22;1033;52.560;13.374;2022-09-09T16:37:10;21.30;1.00
2056;DHT22;1033;52.560;13.374;2022-09-09T16:39:39;21.30;1.00
2056;DHT22;1033;52.560;13.374;2022-09-09T16:42:09;21.50;1.00
2056;DHT22;1033;52.560;13.374;2022-09-09T16:44:38;21.60;1.00
2056;DHT22;1033;52.560;13.374;2022-09-09T16:47:08;21.60;1.00
2056;DHT22;1033;52.560;13.374;2022-09-09T16:49:37;21.60;1.00
2056;DHT22;1033;52.560;13.374;2022-09-09T16:52:06;21.50;1.00